| time (UTC) | temp C | wind direction | speed KPH | gust KPH | rain 1hr cm | rain 24hr cm | rain mn cm | humidity % | barometer mb |
| 20260503185039 | 28 | 298 | 4.8 | 14.5 | 0.00 | 0.03 | 0.00 | 37 | 1010.4 |
| 20260503184547 | 28 | 17 | 4.8 | 14.5 | 0.00 | 0.03 | 0.00 | 37 | 1010.4 |
| 20260503184041 | 28 | 10 | 6.4 | 14.5 | 0.00 | 0.03 | 0.00 | 38 | 1010.5 |
| 20260503183538 | 27 | 20 | 3.2 | 12.9 | 0.00 | 0.03 | 0.00 | 39 | 1010.6 |
| 20260503183048 | 27 | 38 | 4.8 | 14.5 | 0.00 | 0.03 | 0.00 | 40 | 1010.6 |
| 20260503182540 | 27 | 249 | 4.8 | 14.5 | 0.00 | 0.03 | 0.00 | 41 | 1010.6 |
| 20260503182043 | 26 | 349 | 6.4 | 14.5 | 0.00 | 0.03 | 0.00 | 41 | 1010.7 |
| 20260503181551 | 26 | 321 | 3.2 | 14.5 | 0.00 | 0.03 | 0.00 | 43 | 1010.6 |
| 20260503181039 | 26 | 338 | 3.2 | 14.5 | 0.00 | 0.03 | 0.00 | 45 | 1010.7 |
| 20260503180539 | 26 | 360 | 8.0 | 14.5 | 0.00 | 0.03 | 0.00 | 44 | 1010.8 |
| 20260503180055 | 25 | 304 | 3.2 | 12.9 | 0.00 | 0.03 | 0.00 | 46 | 1010.8 |
| 20260503175538 | 25 | 352 | 1.6 | 14.5 | 0.00 | 0.03 | 0.00 | 47 | 1010.8 |
| 20260503175038 | 25 | 5 | 4.8 | 14.5 | 0.00 | 0.03 | 0.00 | 48 | 1010.9 |
| 20260503174554 | 25 | 352 | 4.8 | 14.5 | 0.00 | 0.03 | 0.00 | 47 | 1011.0 |
| 20260503174039 | 24 | 33 | 3.2 | 14.5 | 0.00 | 0.03 | 0.00 | 50 | 1010.9 |
| 20260503173539 | 24 | 327 | 4.8 | 14.5 | 0.00 | 0.03 | 0.00 | 50 | 1010.9 |
| 20260503173051 | 24 | 345 | 4.8 | 12.9 | 0.00 | 0.03 | 0.00 | 50 | 1010.9 |
| 20260503172539 | 23 | 24 | 3.2 | 12.9 | 0.00 | 0.03 | 0.00 | 51 | 1011.0 |
| 20260503172039 | 23 | 40 | 6.4 | 12.9 | 0.00 | 0.03 | 0.00 | 52 | 1010.9 |
| 20260503171553 | 23 | 49 | 3.2 | 12.9 | 0.00 | 0.03 | 0.00 | 53 | 1011.0 |
| 20260503171038 | 23 | 318 | 4.8 | 12.9 | 0.00 | 0.03 | 0.00 | 54 | 1011.0 |
| 20260503170540 | 22 | 346 | 3.2 | 14.5 | 0.00 | 0.03 | 0.00 | 54 | 1011.1 |
| 20260503150538 | 11 | 0 | 0.0 | 0.0 | 0.00 | 0.03 | 0.00 | 94 | 1011.6 |
| 20260503131038 | 8 | 0 | 0.0 | 0.0 | 0.00 | 0.03 | 0.00 | 89 | 1011.5 |
| 20260503130538 | 8 | 0 | 0.0 | 0.0 | 0.00 | 0.03 | 0.00 | 89 | 1011.4 |
| 20260503110538 | 10 | 0 | 0.0 | 0.0 | 0.00 | 0.03 | 0.00 | 87 | 1011.6 |
| 20260503081554 | 12 | 0 | 0.0 | 0.0 | 0.00 | 0.03 | 0.00 | 84 | 1012.2 |
| 20260503081038 | 12 | 0 | 0.0 | 0.0 | 0.00 | 0.03 | 0.00 | 84 | 1012.2 |
| 20260503080538 | 12 | 0 | 0.0 | 0.0 | 0.00 | 0.03 | 0.00 | 84 | 1012.2 |
| 20260503072539 | 13 | 0 | 0.0 | 0.0 | 0.00 | 0.03 | 0.00 | 82 | 1012.2 |
| 20260503072041 | 13 | 0 | 0.0 | 0.0 | 0.00 | 0.03 | 0.00 | 82 | 1012.3 |
| 20260503071603 | 13 | 0 | 0.0 | 0.0 | 0.00 | 0.03 | 0.00 | 82 | 1012.2 |
| 20260503071038 | 13 | 0 | 0.0 | 1.6 | 0.00 | 0.03 | 0.00 | 82 | 1012.2 |
| 20260503070539 | 13 | 0 | 0.0 | 1.6 | 0.00 | 0.03 | 0.00 | 82 | 1012.2 |
| 20260503055039 | 16 | 0 | 0.0 | 0.0 | 0.00 | 0.03 | 0.03 | 77 | 1012.3 |
| 20260503054606 | 16 | 0 | 0.0 | 0.0 | 0.00 | 0.03 | 0.03 | 77 | 1012.3 |
| 20260503054038 | 16 | 0 | 0.0 | 0.0 | 0.00 | 0.03 | 0.03 | 77 | 1012.4 |
| 20260503053539 | 16 | 0 | 0.0 | 4.8 | 0.00 | 0.03 | 0.03 | 76 | 1012.3 |
| 20260503053043 | 16 | 0 | 0.0 | 6.4 | 0.00 | 0.03 | 0.03 | 76 | 1012.2 |
| 20260503052539 | 16 | 203 | 1.6 | 6.4 | 0.00 | 0.03 | 0.03 | 76 | 1012.2 |
| 20260503052038 | 16 | 0 | 0.0 | 3.2 | 0.00 | 0.03 | 0.03 | 76 | 1012.2 |
| 20260503051549 | 16 | 0 | 0.0 | 3.2 | 0.00 | 0.03 | 0.03 | 75 | 1012.2 |
| 20260503051038 | 16 | 103 | 0.0 | 4.8 | 0.00 | 0.03 | 0.03 | 75 | 1012.2 |
| 20260503050538 | 16 | 0 | 0.0 | 4.8 | 0.00 | 0.03 | 0.03 | 75 | 1012.2 |
| 20260503050055 | 16 | 202 | 0.0 | 6.4 | 0.00 | 0.03 | 0.03 | 75 | 1012.2 |
| 20260503045542 | 17 | 331 | 1.6 | 9.7 | 0.00 | 0.03 | 0.03 | 75 | 1012.3 |
| 20260503045038 | 17 | 61 | 3.2 | 9.7 | 0.00 | 0.03 | 0.03 | 75 | 1012.4 |
| 20260503044549 | 17 | 73 | 4.8 | 9.7 | 0.00 | 0.03 | 0.03 | 74 | 1012.4 |
| 20260503044040 | 17 | 71 | 1.6 | 4.8 | 0.00 | 0.03 | 0.03 | 74 | 1012.1 |
| 20260503043538 | 17 | 0 | 0.0 | 6.4 | 0.00 | 0.03 | 0.03 | 74 | 1012.0 |
| 20260503043054 | 17 | 0 | 0.0 | 6.4 | 0.00 | 0.03 | 0.03 | 74 | 1012.0 |
| 20260503042538 | 17 | 181 | 3.2 | 4.8 | 0.00 | 0.03 | 0.03 | 74 | 1011.9 |
| 20260503042038 | 17 | 127 | 1.6 | 6.4 | 0.00 | 0.03 | 0.03 | 74 | 1012.0 |
| 20260503041548 | 17 | 0 | 0.0 | 6.4 | 0.00 | 0.03 | 0.03 | 74 | 1011.8 |
| 20260503041037 | 17 | 331 | 1.6 | 6.4 | 0.00 | 0.03 | 0.03 | 74 | 1011.9 |
| 20260503040537 | 17 | 11 | 1.6 | 8.0 | 0.00 | 0.03 | 0.03 | 74 | 1011.9 |
| 20260503040051 | 17 | 360 | 3.2 | 8.0 | 0.00 | 0.03 | 0.03 | 73 | 1012.0 |
| 20260503035538 | 17 | 317 | 4.8 | 12.9 | 0.00 | 0.03 | 0.03 | 73 | 1012.1 |
| 20260503035039 | 17 | 28 | 1.6 | 12.9 | 0.00 | 0.03 | 0.03 | 73 | 1012.1 |
| 20260503034549 | 17 | 360 | 6.4 | 12.9 | 0.00 | 0.03 | 0.03 | 71 | 1012.1 |
| 20260503034038 | 17 | 43 | 0.0 | 3.2 | 0.00 | 0.03 | 0.03 | 71 | 1012.1 |
| 20260503033540 | 18 | 0 | 0.0 | 4.8 | 0.00 | 0.03 | 0.03 | 70 | 1011.9 |
| 20260503033042 | 18 | 15 | 1.6 | 4.8 | 0.00 | 0.03 | 0.03 | 70 | 1011.8 |
| 20260503032538 | 18 | 48 | 0.0 | 3.2 | 0.00 | 0.03 | 0.03 | 69 | 1011.8 |
| 20260503032038 | 18 | 89 | 0.0 | 3.2 | 0.00 | 0.03 | 0.03 | 69 | 1011.7 |
| 20260503031549 | 18 | 0 | 0.0 | 4.8 | 0.00 | 0.03 | 0.03 | 69 | 1011.7 |
| 20260503031039 | 18 | 0 | 0.0 | 4.8 | 0.00 | 0.03 | 0.03 | 68 | 1011.6 |
| 20260503030538 | 18 | 100 | 1.6 | 4.8 | 0.00 | 0.03 | 0.03 | 68 | 1011.5 |
| 20260503030050 | 18 | 344 | 1.6 | 6.4 | 0.00 | 0.03 | 0.03 | 68 | 1011.5 |
| 20260503025539 | 18 | 0 | 0.0 | 6.4 | 0.00 | 0.03 | 0.03 | 68 | 1011.7 |
| 20260503025039 | 18 | 337 | 3.2 | 6.4 | 0.00 | 0.03 | 0.03 | 67 | 1011.6 |
| 20260503024547 | 18 | 191 | 0.0 | 4.8 | 0.00 | 0.03 | 0.03 | 67 | 1011.8 |
| 20260503024038 | 18 | 302 | 1.6 | 9.7 | 0.00 | 0.03 | 0.03 | 67 | 1011.7 |
| 20260503023538 | 19 | 239 | 0.0 | 12.9 | 0.00 | 0.03 | 0.03 | 66 | 1011.9 |
| 20260503023047 | 19 | 180 | 3.2 | 14.5 | 0.00 | 0.03 | 0.03 | 66 | 1012.1 |
| 20260503022538 | 19 | 165 | 4.8 | 22.5 | 0.00 | 0.03 | 0.03 | 66 | 1012.1 |
| 20260503022038 | 19 | 172 | 4.8 | 22.5 | 0.00 | 0.03 | 0.03 | 65 | 1012.2 |
| 20260503021545 | 20 | 146 | 6.4 | 19.3 | 0.00 | 0.03 | 0.03 | 65 | 1012.3 |
| 20260503021038 | 20 | 175 | 8.0 | 25.7 | 0.00 | 0.03 | 0.03 | 65 | 1012.4 |
| 20260503020538 | 20 | 217 | 4.8 | 27.4 | 0.00 | 0.03 | 0.03 | 65 | 1012.4 |
| 20260503020048 | 20 | 150 | 12.9 | 27.4 | 0.00 | 0.03 | 0.03 | 64 | 1012.3 |
| 20260503015541 | 20 | 161 | 9.7 | 22.5 | 0.00 | 0.03 | 0.03 | 63 | 1012.1 |
| 20260503015038 | 21 | 165 | 3.2 | 14.5 | 0.00 | 0.03 | 0.03 | 63 | 1011.7 |
| 20260503014559 | 21 | 169 | 8.0 | 14.5 | 0.00 | 0.03 | 0.03 | 62 | 1011.4 |
| 20260503014038 | 21 | 0 | 3.2 | 8.0 | 0.00 | 0.03 | 0.03 | 61 | 1011.4 |
| 20260503013538 | 21 | 157 | 1.6 | 8.0 | 0.00 | 0.03 | 0.03 | 60 | 1011.3 |
| 20260503013046 | 21 | 210 | 1.6 | 8.0 | 0.00 | 0.03 | 0.03 | 60 | 1011.2 |
| 20260503012538 | 21 | 155 | 3.2 | 6.4 | 0.00 | 0.03 | 0.03 | 60 | 1011.2 |
| 20260503012037 | 21 | 158 | 0.0 | 8.0 | 0.00 | 0.03 | 0.03 | 60 | 1011.2 |
| 20260503011548 | 21 | 128 | 3.2 | 9.7 | 0.00 | 0.03 | 0.03 | 60 | 1011.2 |
| 20260503011039 | 21 | 165 | 3.2 | 9.7 | 0.00 | 0.03 | 0.03 | 60 | 1011.2 |
| 20260503010539 | 21 | 188 | 0.0 | 8.0 | 0.00 | 0.03 | 0.03 | 60 | 1011.2 |
| 20260503010051 | 21 | 181 | 4.8 | 8.0 | 0.00 | 0.03 | 0.03 | 59 | 1011.1 |
| 20260503005539 | 21 | 161 | 3.2 | 8.0 | 0.00 | 0.03 | 0.03 | 60 | 1011.2 |
| 20260503005039 | 21 | 0 | 1.6 | 8.0 | 0.00 | 0.03 | 0.03 | 59 | 1011.1 |
| 20260503004551 | 21 | 229 | 0.0 | 6.4 | 0.00 | 0.03 | 0.03 | 58 | 1011.1 |
| 20260503004039 | 21 | 0 | 0.0 | 9.7 | 0.00 | 0.03 | 0.03 | 59 | 1011.0 |
| 20260503003538 | 21 | 0 | 3.2 | 9.7 | 0.00 | 0.03 | 0.03 | 59 | 1011.1 |
| 20260503003051 | 22 | 243 | 1.6 | 11.3 | 0.00 | 0.03 | 0.03 | 59 | 1011.1 |
| 20260503002538 | 22 | 160 | 4.8 | 11.3 | 0.00 | 0.03 | 0.03 | 57 | 1011.1 |
| 20260503002038 | 22 | 217 | 1.6 | 11.3 | 0.00 | 0.03 | 0.03 | 57 | 1011.1 |
| 20260503001550 | 22 | 165 | 1.6 | 11.3 | 0.00 | 0.03 | 0.03 | 58 | 1011.1 |
| 20260503001038 | 22 | 267 | 3.2 | 11.3 | 0.00 | 0.03 | 0.03 | 57 | 1011.1 |
| 20260503000538 | 22 | 199 | 3.2 | 9.7 | 0.00 | 0.03 | 0.03 | 59 | 1011.2 |
| 20260503000048 | 22 | 171 | 3.2 | 14.5 | 0.00 | 0.03 | 0.03 | 58 | 1011.1 |
| 20260502235538 | 22 | 227 | 3.2 | 14.5 | 0.00 | 0.03 | 0.03 | 57 | 1011.2 |
| 20260502235038 | 22 | 219 | 3.2 | 12.9 | 0.00 | 0.03 | 0.03 | 57 | 1011.2 |
| 20260502234554 | 22 | 224 | 4.8 | 12.9 | 0.00 | 0.03 | 0.03 | 56 | 1011.3 |
| 20260502234039 | 22 | 239 | 4.8 | 11.3 | 0.00 | 0.03 | 0.03 | 55 | 1011.3 |
| 20260502233539 | 22 | 175 | 1.6 | 11.3 | 0.00 | 0.03 | 0.03 | 57 | 1011.4 |
| 20260502233048 | 22 | 235 | 3.2 | 12.9 | 0.00 | 0.03 | 0.03 | 57 | 1011.5 |
| 20260502232538 | 22 | 275 | 3.2 | 12.9 | 0.00 | 0.03 | 0.03 | 56 | 1011.5 |
| 20260502232038 | 22 | 236 | 3.2 | 12.9 | 0.00 | 0.03 | 0.03 | 57 | 1011.6 |
| 20260502231548 | 22 | 173 | 1.6 | 12.9 | 0.00 | 0.03 | 0.03 | 57 | 1011.6 |
| 20260502231038 | 22 | 159 | 6.4 | 12.9 | 0.00 | 0.03 | 0.03 | 56 | 1011.7 |
| 20260502230538 | 22 | 211 | 1.6 | 12.9 | 0.00 | 0.03 | 0.03 | 56 | 1011.7 |
| 20260502230052 | 22 | 230 | 1.6 | 14.5 | 0.00 | 0.03 | 0.03 | 57 | 1011.7 |
| 20260502225538 | 22 | 200 | 6.4 | 14.5 | 0.00 | 0.03 | 0.03 | 55 | 1011.8 |
| 20260502225038 | 22 | 155 | 3.2 | 11.3 | 0.00 | 0.03 | 0.03 | 54 | 1011.9 |
| 20260502224550 | 22 | 247 | 3.2 | 11.3 | 0.00 | 0.03 | 0.03 | 56 | 1012.0 |
| 20260502224038 | 22 | 211 | 4.8 | 9.7 | 0.00 | 0.03 | 0.03 | 56 | 1012.1 |
| 20260502223538 | 22 | 187 | 3.2 | 11.3 | 0.00 | 0.03 | 0.03 | 57 | 1012.2 |
| 20260502223047 | 22 | 199 | 4.8 | 11.3 | 0.00 | 0.03 | 0.03 | 58 | 1012.3 |
| 20260502222539 | 22 | 221 | 3.2 | 11.3 | 0.00 | 0.03 | 0.03 | 57 | 1012.4 |
| 20260502222037 | 22 | 198 | 4.8 | 11.3 | 0.00 | 0.03 | 0.03 | 58 | 1012.5 |
| 20260502221555 | 22 | 167 | 3.2 | 9.7 | 0.00 | 0.03 | 0.03 | 58 | 1012.6 |
| 20260502221038 | 22 | 235 | 3.2 | 9.7 | 0.00 | 0.03 | 0.03 | 57 | 1012.7 |
| 20260502220538 | 22 | 346 | 3.2 | 9.7 | 0.00 | 0.03 | 0.03 | 57 | 1012.7 |
| 20260502220051 | 22 | 220 | 1.6 | 9.7 | 0.00 | 0.03 | 0.03 | 57 | 1012.7 |
| 20260502215539 | 21 | 219 | 3.2 | 9.7 | 0.00 | 0.03 | 0.03 | 59 | 1012.9 |
| 20260502215038 | 21 | 186 | 3.2 | 8.0 | 0.00 | 0.03 | 0.03 | 59 | 1012.9 |
| 20260502214559 | 21 | 196 | 1.6 | 8.0 | 0.00 | 0.03 | 0.03 | 60 | 1013.0 |
| 20260502214038 | 21 | 145 | 3.2 | 6.4 | 0.00 | 0.03 | 0.03 | 58 | 1013.1 |
| 20260502213538 | 21 | 191 | 0.0 | 9.7 | 0.00 | 0.03 | 0.03 | 59 | 1013.2 |
| 20260502213050 | 21 | 0 | 3.2 | 9.7 | 0.00 | 0.03 | 0.03 | 60 | 1013.2 |
| 20260502212538 | 21 | 196 | 1.6 | 14.5 | 0.00 | 0.03 | 0.03 | 59 | 1013.2 |
| 20260502212039 | 21 | 25 | 3.2 | 14.5 | 0.00 | 0.03 | 0.03 | 59 | 1013.3 |
| 20260502211549 | 21 | 265 | 1.6 | 6.4 | 0.00 | 0.03 | 0.03 | 61 | 1013.4 |
| 20260502211041 | 20 | 255 | 3.2 | 9.7 | 0.00 | 0.03 | 0.03 | 60 | 1013.5 |
| 20260502210539 | 20 | 173 | 1.6 | 9.7 | 0.00 | 0.03 | 0.03 | 61 | 1013.6 |
| 20260502210050 | 20 | 234 | 1.6 | 11.3 | 0.00 | 0.03 | 0.03 | 62 | 1013.6 |
| 20260502205540 | 20 | 351 | 1.6 | 11.3 | 0.00 | 0.03 | 0.03 | 61 | 1013.7 |
| 20260502205039 | 19 | 258 | 1.6 | 11.3 | 0.00 | 0.03 | 0.03 | 62 | 1013.8 |
| 20260502204557 | 19 | 288 | 3.2 | 9.7 | 0.00 | 0.03 | 0.03 | 63 | 1013.9 |
| 20260502204039 | 18 | 211 | 3.2 | 9.7 | 0.00 | 0.03 | 0.03 | 66 | 1014.0 |
| 20260502203539 | 18 | 290 | 3.2 | 8.0 | 0.00 | 0.03 | 0.03 | 66 | 1014.1 |
| 20260502203051 | 18 | 160 | 3.2 | 6.4 | 0.00 | 0.03 | 0.03 | 66 | 1014.2 |
| 20260502202537 | 17 | 155 | 1.6 | 8.0 | 0.00 | 0.03 | 0.03 | 66 | 1014.4 |
| 20260502202038 | 17 | 323 | 3.2 | 8.0 | 0.00 | 0.03 | 0.03 | 67 | 1014.4 |
| 20260502201550 | 17 | 344 | 3.2 | 8.0 | 0.00 | 0.03 | 0.03 | 69 | 1014.5 |
| 20260502201040 | 17 | 307 | 1.6 | 8.0 | 0.00 | 0.03 | 0.03 | 71 | 1014.5 |
| 20260502200539 | 16 | 0 | 1.6 | 9.7 | 0.00 | 0.03 | 0.03 | 74 | 1014.6 |
| 20260502200052 | 16 | 191 | 1.6 | 9.7 | 0.00 | 0.03 | 0.03 | 73 | 1014.6 |
| 20260502195538 | 16 | 71 | 1.6 | 9.7 | 0.00 | 0.03 | 0.03 | 75 | 1014.8 |
| 20260502195038 | 15 | 346 | 3.2 | 14.5 | 0.00 | 0.03 | 0.03 | 75 | 1014.8 |
| 20260502194551 | 15 | 53 | 3.2 | 14.5 | 0.00 | 0.03 | 0.03 | 75 | 1014.8 |
| 20260502194038 | 15 | 38 | 3.2 | 12.9 | 0.00 | 0.03 | 0.03 | 77 | 1014.7 |
| 20260502193539 | 15 | 5 | 1.6 | 12.9 | 0.00 | 0.03 | 0.03 | 80 | 1014.8 |
| 20260502193045 | 14 | 0 | 1.6 | 12.9 | 0.03 | 0.03 | 0.03 | 81 | 1015.0 |
| 20260502192537 | 13 | 5 | 4.8 | 12.9 | 0.03 | 0.03 | 0.03 | 82 | 1014.9 |
| 20260502192038 | 13 | 352 | 3.2 | 9.7 | 0.03 | 0.03 | 0.03 | 83 | 1014.9 |
| 20260502191544 | 13 | 240 | 3.2 | 9.7 | 0.03 | 0.03 | 0.03 | 83 | 1015.1 |
| 20260502191038 | 13 | 209 | 1.6 | 9.7 | 0.03 | 0.03 | 0.03 | 83 | 1015.3 |
| 20260502190539 | 13 | 0 | 1.6 | 12.9 | 0.03 | 0.03 | 0.03 | 83 | 1015.5 |
| 20260502190048 | 13 | 236 | 3.2 | 12.9 | 0.03 | 0.03 | 0.03 | 84 | 1015.6 |
| 20260502185538 | 13 | 234 | 3.2 | 11.3 | 0.03 | 0.03 | 0.03 | 85 | 1015.7 |